createdAt,value
2023-03-27T00:02:11.690Z,99853.63
2023-03-27T00:04:38.453Z,99851.06
2023-03-27T00:07:07.720Z,99844.13
2023-03-27T00:09:34.348Z,99860.63
2023-03-27T00:12:02.344Z,99858.00
2023-03-27T00:14:30.359Z,99860.59
2023-03-27T00:17:00.128Z,99856.19
2023-03-27T00:19:26.892Z,99870.94
2023-03-27T00:21:54.878Z,99871.81
2023-03-27T00:24:22.196Z,99877.88
2023-03-27T00:26:48.812Z,99882.22
2023-03-27T00:29:15.441Z,99889.94
2023-03-27T00:31:42.076Z,99891.69
2023-03-27T00:34:08.713Z,99901.09
2023-03-27T00:36:35.347Z,99901.97
2023-03-27T00:39:02.028Z,99900.22
2023-03-27T00:41:28.694Z,99910.56
2023-03-27T00:43:58.199Z,99914.97
2023-03-27T00:46:44.960Z,99913.13
2023-03-27T00:49:13.594Z,99925.25
2023-03-27T00:51:41.724Z,99925.91
2023-03-27T00:54:09.806Z,99922.53
2023-03-27T00:56:38.556Z,99931.25
2023-03-27T00:59:10.881Z,99930.34
2023-03-27T01:01:38.379Z,99933.78
2023-03-27T01:04:06.841Z,99940.72
2023-03-27T01:06:33.497Z,99933.66
2023-03-27T01:09:00.117Z,99930.13
2023-03-27T01:11:39.483Z,99939.56
2023-03-27T01:14:13.429Z,99939.41
2023-03-27T01:16:45.075Z,99943.00
2023-03-27T01:19:40.161Z,99949.91
2023-03-27T01:22:22.673Z,99948.13
2023-03-27T01:25:22.469Z,99945.44
2023-03-27T01:27:58.570Z,99946.34
2023-03-27T01:30:34.340Z,99952.34
2023-03-27T01:33:21.553Z,99956.66
2023-03-27T01:36:00.564Z,99960.06
2023-03-27T01:39:05.396Z,99954.84
2023-03-27T01:41:42.036Z,99961.72
2023-03-27T01:44:43.369Z,99975.56
2023-03-27T01:47:22.957Z,99967.66
2023-03-27T01:50:04.753Z,99970.16
2023-03-27T01:52:33.227Z,99977.00
2023-03-27T01:55:05.028Z,99972.63
2023-03-27T01:57:49.446Z,99988.09
2023-03-27T02:00:21.951Z,100000.97
2023-03-27T02:03:09.208Z,100003.47
2023-03-27T02:05:44.650Z,100012.84
2023-03-27T02:08:15.520Z,100018.88
2023-03-27T02:10:45.773Z,100025.09
2023-03-27T02:13:21.338Z,100023.19
2023-03-27T02:15:49.805Z,100024.47
2023-03-27T02:18:26.492Z,100020.72
2023-03-27T02:20:53.264Z,100020.72
2023-03-27T02:23:22.987Z,100019.88
2023-03-27T02:25:49.926Z,100024.13
2023-03-27T02:28:31.939Z,100025.09
2023-03-27T02:31:31.739Z,100036.34
2023-03-27T02:34:34.190Z,100030.34
2023-03-27T02:37:12.331Z,100037.94
2023-03-27T02:40:05.323Z,100036.31
2023-03-27T02:43:14.498Z,100034.44
2023-03-27T02:45:52.539Z,100042.25
2023-03-27T02:48:35.354Z,100045.84
2023-03-27T02:51:07.432Z,100044.09
2023-03-27T02:53:38.286Z,100054.47
2023-03-27T02:56:06.934Z,100053.50
2023-03-27T02:58:50.076Z,100058.69
2023-03-27T03:01:18.811Z,100063.88
2023-03-27T03:03:55.449Z,100071.66
2023-03-27T03:06:29.659Z,100070.72
2023-03-27T03:09:03.424Z,100072.09
2023-03-27T03:11:30.534Z,100076.41
2023-03-27T03:13:57.549Z,100081.59
2023-03-27T03:16:24.243Z,100084.28
2023-03-27T03:18:51.318Z,100087.50
2023-03-27T03:21:18.185Z,100082.41
2023-03-27T03:23:57.845Z,100098.91
2023-03-27T03:26:27.153Z,100095.31
2023-03-27T03:29:00.839Z,100096.25
2023-03-27T03:31:44.124Z,100104.03
2023-03-27T03:34:18.650Z,100104.88
2023-03-27T03:36:49.250Z,100101.22
2023-03-27T03:39:16.839Z,100101.94
2023-03-27T03:41:43.484Z,100113.97
2023-03-27T03:44:10.544Z,100108.00
2023-03-27T03:46:37.300Z,100127.09
2023-03-27T03:49:07.172Z,100118.47
2023-03-27T03:51:35.369Z,100126.19
2023-03-27T03:54:02.467Z,100133.16
2023-03-27T03:56:30.588Z,100134.00
2023-03-27T03:58:57.772Z,100133.81
2023-03-27T04:01:26.276Z,100140.56
2023-03-27T04:03:53.148Z,100146.81
2023-03-27T04:06:25.433Z,100145.63
2023-03-27T04:08:53.141Z,100143.34
2023-03-27T04:11:20.221Z,100151.50
2023-03-27T04:13:46.873Z,100161.91
2023-03-27T04:16:13.624Z,100154.28
2023-03-27T04:18:41.431Z,100163.59
2023-03-27T04:21:15.700Z,100167.13
2023-03-27T04:23:43.137Z,100171.75
2023-03-27T04:26:12.212Z,100171.78
2023-03-27T04:28:39.814Z,100174.47
2023-03-27T04:31:07.837Z,100185.59
2023-03-27T04:33:39.153Z,100189.84
2023-03-27T04:36:07.954Z,100193.91
2023-03-27T04:38:39.220Z,100196.53
2023-03-27T04:41:06.170Z,100195.59
2023-03-27T04:43:36.784Z,100201.75
2023-03-27T04:46:07.294Z,100209.22
2023-03-27T04:48:34.590Z,100202.19
2023-03-27T04:51:01.391Z,100206.94
2023-03-27T04:53:30.389Z,100212.81
2023-03-27T04:55:57.400Z,100209.22
2023-03-27T04:58:25.950Z,100218.59
2023-03-27T05:00:56.066Z,100218.69
2023-03-27T05:03:27.961Z,100217.03
2023-03-27T05:05:54.872Z,100228.34
2023-03-27T05:08:21.771Z,100233.28
2023-03-27T05:10:48.682Z,100234.16
2023-03-27T05:13:15.496Z,100247.25
2023-03-27T05:15:42.393Z,100247.16
2023-03-27T05:18:09.568Z,100244.69
2023-03-27T05:20:37.126Z,100249.91
2023-03-27T05:23:04.162Z,100254.00
2023-03-27T05:25:32.162Z,100261.63
2023-03-27T05:28:00.384Z,100263.56
2023-03-27T05:30:29.063Z,100261.06
2023-03-27T05:32:59.384Z,100266.16
2023-03-27T05:35:28.585Z,100266.41
2023-03-27T05:37:57.092Z,100268.91
2023-03-27T05:40:25.696Z,100271.44
2023-03-27T05:42:53.338Z,100267.53
2023-03-27T05:45:20.821Z,100277.72
2023-03-27T05:47:49.795Z,100285.31
2023-03-27T05:50:16.924Z,100280.31
2023-03-27T05:52:44.085Z,100290.00
2023-03-27T05:55:10.954Z,100293.66
2023-03-27T05:57:39.464Z,100297.09
2023-03-27T06:00:11.581Z,100295.38
2023-03-27T06:02:39.320Z,100295.50
2023-03-27T06:05:12.995Z,100297.47
2023-03-27T06:07:43.002Z,100304.38
2023-03-27T06:10:13.870Z,100297.31
2023-03-27T06:12:41.926Z,100299.25
2023-03-27T06:15:09.879Z,100305.78
2023-03-27T06:17:39.207Z,100310.13
2023-03-27T06:20:12.742Z,100321.69
2023-03-27T06:22:44.969Z,100320.94
2023-03-27T06:25:12.086Z,100325.47
2023-03-27T06:27:39.396Z,100329.81
2023-03-27T06:30:06.666Z,100331.88
2023-03-27T06:32:34.305Z,100331.19
2023-03-27T06:35:02.758Z,100332.44
2023-03-27T06:37:33.847Z,100333.28
2023-03-27T06:40:00.579Z,100331.78
2023-03-27T06:42:27.363Z,100336.75
2023-03-27T06:44:54.094Z,100334.31
2023-03-27T06:47:20.983Z,100347.53
2023-03-27T06:49:48.752Z,100355.31
2023-03-27T06:52:15.729Z,100342.03
2023-03-27T06:54:42.530Z,100341.50
2023-03-27T06:57:09.289Z,100348.84
2023-03-27T06:59:36.323Z,100346.38
2023-03-27T07:02:03.403Z,100362.91
2023-03-27T07:04:30.270Z,100356.78
2023-03-27T07:06:57.071Z,100355.97
2023-03-27T07:09:23.807Z,100355.00
2023-03-27T07:11:50.674Z,100356.78
2023-03-27T07:14:17.490Z,100360.09
2023-03-27T07:16:44.341Z,100364.38
2023-03-27T07:19:11.202Z,100366.34
2023-03-27T07:21:37.945Z,100368.91
2023-03-27T07:24:04.847Z,100374.22
2023-03-27T07:26:33.507Z,100382.91
2023-03-27T07:29:01.002Z,100380.41
2023-03-27T07:31:49.002Z,100381.25
2023-03-27T07:34:16.003Z,100383.81
2023-03-27T07:36:43.404Z,100381.25
2023-03-27T07:39:12.525Z,100386.31
2023-03-27T07:41:39.330Z,100386.22
2023-03-27T07:44:07.323Z,100393.19
2023-03-27T07:46:34.251Z,100387.06
2023-03-27T07:49:01.255Z,100393.16
2023-03-27T07:51:28.345Z,100395.84
2023-03-27T07:53:55.882Z,100404.47
2023-03-27T07:56:23.602Z,100402.03
2023-03-27T07:58:51.603Z,100395.06
2023-03-27T08:01:18.413Z,100388.00
2023-03-27T08:03:47.329Z,100407.19
2023-03-27T08:06:21.736Z,100412.41
2023-03-27T08:08:49.563Z,100408.09
2023-03-27T08:11:29.664Z,100406.38
2023-03-27T08:13:58.499Z,100399.44
2023-03-27T08:16:28.972Z,100413.47
2023-03-27T08:18:56.282Z,100416.97
2023-03-27T08:21:23.890Z,100411.66
2023-03-27T08:23:50.685Z,100409.88
2023-03-27T08:26:18.140Z,100407.28
2023-03-27T08:28:45.018Z,100417.81
2023-03-27T08:31:14.186Z,100425.59
2023-03-27T08:33:42.839Z,100426.41
2023-03-27T08:36:11.627Z,100416.78
2023-03-27T08:38:39.554Z,100430.81
2023-03-27T08:41:06.794Z,100430.91
2023-03-27T08:43:42.264Z,100431.78
2023-03-27T08:46:15.211Z,100432.56
2023-03-27T08:49:00.518Z,100448.25
2023-03-27T08:51:33.213Z,100445.59
2023-03-27T08:54:08.334Z,100437.84
2023-03-27T08:56:35.309Z,100443.13
2023-03-27T08:59:02.153Z,100432.69
2023-03-27T09:01:33.708Z,100434.44
2023-03-27T09:04:07.343Z,100422.22
2023-03-27T09:07:15.698Z,100433.56
2023-03-27T09:09:55.881Z,100448.38
2023-03-27T09:12:28.792Z,100444.00
2023-03-27T09:15:00.708Z,100441.28
2023-03-27T09:17:34.962Z,100448.25
2023-03-27T09:20:25.941Z,100438.56
2023-03-27T09:22:58.833Z,100451.72
2023-03-27T09:25:32.641Z,100452.72
2023-03-27T09:28:00.661Z,100458.81
2023-03-27T09:30:33.701Z,100452.75
2023-03-27T09:33:05.819Z,100455.38
2023-03-27T09:35:35.353Z,100459.72
2023-03-27T09:38:07.101Z,100456.94
2023-03-27T09:40:41.525Z,100468.25
2023-03-27T09:43:16.422Z,100471.78
2023-03-27T09:45:44.159Z,100463.00
2023-03-27T09:48:31.854Z,100454.97
2023-03-27T09:50:58.750Z,100467.16
2023-03-27T09:53:27.952Z,100478.72
2023-03-27T09:55:59.002Z,100488.44
2023-03-27T09:58:49.060Z,100480.44
2023-03-27T10:01:36.283Z,100481.09
2023-03-27T10:04:13.056Z,100486.16
2023-03-27T10:06:44.752Z,100486.97
2023-03-27T10:09:27.034Z,100476.56
2023-03-27T10:12:17.853Z,100476.72
2023-03-27T10:14:47.394Z,100480.31
2023-03-27T10:17:26.745Z,100489.06
2023-03-27T10:19:58.874Z,100487.03
2023-03-27T10:22:34.447Z,100493.84
2023-03-27T10:25:04.812Z,100479.69
2023-03-27T10:27:34.031Z,100482.75
2023-03-27T10:30:00.779Z,100478.06
2023-03-27T10:32:45.380Z,100476.41
2023-03-27T10:35:26.786Z,100494.41
2023-03-27T10:37:54.687Z,100498.16
2023-03-27T10:40:26.372Z,100505.44
2023-03-27T10:43:00.107Z,100496.34
2023-03-27T10:45:26.818Z,100511.97
2023-03-27T10:47:55.936Z,100503.81
2023-03-27T10:50:30.607Z,100500.72
2023-03-27T10:53:18.423Z,100508.44
2023-03-27T10:56:01.163Z,100508.75
2023-03-27T10:58:33.960Z,100510.72
2023-03-27T11:01:06.259Z,100505.63
2023-03-27T11:04:00.121Z,100520.59
2023-03-27T11:06:31.269Z,100522.31
2023-03-27T11:09:34.877Z,100516.63
2023-03-27T11:12:05.021Z,100511.16
2023-03-27T11:14:40.819Z,100520.69
2023-03-27T11:17:08.799Z,100513.75
2023-03-27T11:19:56.740Z,100520.47
2023-03-27T11:22:28.862Z,100533.78
2023-03-27T11:25:16.497Z,100536.22
2023-03-27T11:28:06.026Z,100531.00
2023-03-27T11:30:46.042Z,100526.34
2023-03-27T11:33:33.115Z,100520.28
2023-03-27T11:36:24.920Z,100528.19
2023-03-27T11:39:09.231Z,100530.72
2023-03-27T11:41:35.955Z,100527.00
2023-03-27T11:44:02.600Z,100518.19
2023-03-27T11:46:44.510Z,100521.59
2023-03-27T11:49:43.607Z,100520.28
2023-03-27T11:52:31.547Z,100523.84
2023-03-27T11:55:11.043Z,100514.50
2023-03-27T11:57:48.413Z,100513.22
2023-03-27T12:00:26.966Z,100523.63
2023-03-27T12:03:24.738Z,100521.16
2023-03-27T12:06:02.499Z,100521.41
2023-03-27T12:08:41.098Z,100535.16
2023-03-27T12:11:09.935Z,100526.66
2023-03-27T12:14:01.571Z,100521.91
2023-03-27T12:16:47.521Z,100529.31
2023-03-27T12:19:48.448Z,100532.41
2023-03-27T12:22:35.764Z,100537.78
2023-03-27T12:25:36.239Z,100545.59
2023-03-27T12:28:09.357Z,100534.28
2023-03-27T12:30:59.133Z,100543.84
2023-03-27T12:33:33.538Z,100539.38
2023-03-27T12:36:05.593Z,100548.09
2023-03-27T12:38:41.075Z,100542.88
2023-03-27T12:41:23.363Z,100548.78
2023-03-27T12:43:57.910Z,100545.56
2023-03-27T12:46:24.630Z,100555.22
2023-03-27T12:48:54.462Z,100553.31
2023-03-27T12:51:43.919Z,100553.38
2023-03-27T12:54:25.722Z,100556.09
2023-03-27T12:57:15.868Z,100568.28
2023-03-27T12:59:48.960Z,100563.06
2023-03-27T13:02:18.566Z,100559.25
2023-03-27T13:05:24.032Z,100564.72
2023-03-27T13:08:18.392Z,100557.81
2023-03-27T13:11:00.731Z,100564.78
2023-03-27T13:13:49.363Z,100558.56
2023-03-27T13:16:50.312Z,100571.38
2023-03-27T13:19:37.090Z,100569.78
2023-03-27T13:22:18.862Z,100572.16
2023-03-27T13:25:05.820Z,100566.03
2023-03-27T13:27:54.048Z,100574.72
2023-03-27T13:30:46.622Z,100564.13
2023-03-27T13:33:28.896Z,100563.22
2023-03-27T13:36:02.508Z,100565.28
2023-03-27T13:38:45.975Z,100559.19
2023-03-27T13:41:43.513Z,100560.84
2023-03-27T13:44:14.132Z,100565.31
2023-03-27T13:47:01.961Z,100560.88
2023-03-27T13:49:33.855Z,100561.63
2023-03-27T13:52:28.021Z,100556.09
2023-03-27T13:55:20.007Z,100555.34
2023-03-27T13:58:02.959Z,100553.56
2023-03-27T14:00:56.768Z,100548.56
2023-03-27T14:04:06.756Z,100558.06
2023-03-27T14:06:58.153Z,100583.72
2023-03-27T14:09:45.436Z,100572.50
2023-03-27T14:12:53.177Z,100565.59
2023-03-27T14:15:33.060Z,100568.19
2023-03-27T14:18:21.210Z,100579.59
2023-03-27T14:21:11.904Z,100588.38
2023-03-27T14:23:49.557Z,100566.59
2023-03-27T14:26:25.641Z,100575.19
2023-03-27T14:29:02.307Z,100570.66
2023-03-27T14:31:37.380Z,100568.13
2023-03-27T14:34:25.458Z,100560.44
2023-03-27T14:36:58.504Z,100583.03
2023-03-27T14:39:28.652Z,100570.81
2023-03-27T14:42:02.536Z,100586.94
2023-03-27T14:44:32.789Z,100579.03
2023-03-27T14:47:06.258Z,100575.50
2023-03-27T14:49:39.206Z,100570.13
2023-03-27T14:52:08.068Z,100572.09
2023-03-27T14:54:44.621Z,100578.19
2023-03-27T14:57:20.736Z,100579.94
2023-03-27T14:59:47.558Z,100591.31
2023-03-27T15:02:21.329Z,100584.41
2023-03-27T15:04:48.293Z,100581.88
2023-03-27T15:07:18.939Z,100587.09
2023-03-27T15:09:46.981Z,100589.72
2023-03-27T15:12:13.635Z,100594.97
2023-03-27T15:14:41.403Z,100587.97
2023-03-27T15:17:17.779Z,100583.59
2023-03-27T15:19:54.775Z,100592.38
2023-03-27T15:22:31.646Z,100587.16
2023-03-27T15:25:03.760Z,100583.63
2023-03-27T15:27:32.477Z,100591.53
2023-03-27T15:30:33.996Z,100588.03
2023-03-27T15:33:02.220Z,100589.75
2023-03-27T15:35:35.311Z,100599.38
2023-03-27T15:38:03.374Z,100596.75
2023-03-27T15:40:39.046Z,100598.50
2023-03-27T15:43:13.906Z,100603.72
2023-03-27T15:45:43.251Z,100594.13
2023-03-27T15:48:15.828Z,100599.34
2023-03-27T15:50:57.432Z,100597.59
2023-03-27T15:53:32.253Z,100599.34
2023-03-27T15:56:00.942Z,100599.38
2023-03-27T15:58:30.404Z,100608.09
2023-03-27T16:01:18.254Z,100592.34
2023-03-27T16:03:48.406Z,100599.34
2023-03-27T16:06:26.734Z,100604.59
2023-03-27T16:08:53.808Z,100606.38
2023-03-27T16:11:41.925Z,100602.84
2023-03-27T16:14:21.611Z,100608.97
2023-03-27T16:16:49.671Z,100605.47
2023-03-27T16:19:16.435Z,100605.47
2023-03-27T16:21:56.636Z,100607.22
2023-03-27T16:24:23.404Z,100617.72
2023-03-27T16:26:51.221Z,100614.22
2023-03-27T16:29:19.396Z,100611.63
2023-03-27T16:31:46.235Z,100614.22
2023-03-27T16:34:23.062Z,100616.84
2023-03-27T16:36:50.393Z,100615.97
2023-03-27T16:39:17.190Z,100622.94
2023-03-27T16:41:43.870Z,100616.81
2023-03-27T16:44:10.801Z,100620.31
2023-03-27T16:46:37.437Z,100638.63
2023-03-27T16:49:04.113Z,100638.63
2023-03-27T16:51:31.043Z,100645.56
2023-03-27T16:53:57.809Z,100646.44
2023-03-27T16:56:27.403Z,100658.66
2023-03-27T16:58:56.990Z,100665.63
2023-03-27T17:01:26.502Z,100667.34
2023-03-27T17:03:53.240Z,100675.16
2023-03-27T17:06:21.891Z,100690.81
2023-03-27T17:08:49.259Z,100686.47
2023-03-27T17:11:15.958Z,100694.25
2023-03-27T17:13:43.813Z,100696.84
2023-03-27T17:16:10.909Z,100699.50
2023-03-27T17:18:37.555Z,100703.84
2023-03-27T17:21:04.374Z,100713.44
2023-03-27T17:23:31.727Z,100721.88
2023-03-27T17:26:02.795Z,100719.41
2023-03-27T17:28:31.081Z,100718.34
2023-03-27T17:31:04.605Z,100734.84
2023-03-27T17:33:32.117Z,100736.56
2023-03-27T17:35:58.909Z,100740.78
2023-03-27T17:38:25.820Z,100759.88
2023-03-27T17:40:52.438Z,100744.84
2023-03-27T17:43:19.119Z,100762.13
2023-03-27T17:45:45.869Z,100757.28
2023-03-27T17:48:12.675Z,100763.66
2023-03-27T17:50:39.348Z,100756.25
2023-03-27T17:53:06.865Z,100752.13
2023-03-27T17:55:36.806Z,100754.66
2023-03-27T17:58:09.331Z,100748.03
2023-03-27T18:00:37.685Z,100735.66
2023-03-27T18:03:04.813Z,100734.53
2023-03-27T18:05:37.445Z,100743.28
2023-03-27T18:08:05.045Z,100742.84
2023-03-27T18:10:33.592Z,100739.44
2023-03-27T18:13:02.616Z,100734.22
2023-03-27T18:15:29.531Z,100720.44
2023-03-27T18:17:56.233Z,100734.31
2023-03-27T18:20:22.957Z,100742.22
2023-03-27T18:22:49.594Z,100734.34
2023-03-27T18:25:16.218Z,100735.50
2023-03-27T18:27:44.720Z,100743.38
2023-03-27T18:30:13.495Z,100742.50
2023-03-27T18:32:41.549Z,100754.50
2023-03-27T18:35:14.084Z,100766.56
2023-03-27T18:37:45.241Z,100769.16
2023-03-27T18:40:15.095Z,100755.31
2023-03-27T18:42:47.517Z,100755.38
2023-03-27T18:45:16.648Z,100750.97
2023-03-27T18:47:44.240Z,100760.34
2023-03-27T18:50:12.800Z,100755.97
2023-03-27T18:52:39.670Z,100751.53
2023-03-27T18:55:08.221Z,100740.22
2023-03-27T18:57:35.762Z,100723.63
2023-03-27T19:00:02.544Z,100708.03
2023-03-27T19:02:29.255Z,100699.44
2023-03-27T19:04:56.049Z,100699.28
2023-03-27T19:07:22.706Z,100699.16
2023-03-27T19:09:49.339Z,100696.56
2023-03-27T19:12:15.996Z,100680.13
2023-03-27T19:14:42.695Z,100687.78
2023-03-27T19:17:14.555Z,100682.56
2023-03-27T19:19:43.033Z,100685.94
2023-03-27T19:22:12.921Z,100689.38
2023-03-27T19:24:40.063Z,100674.66
2023-03-27T19:27:07.144Z,100674.56
2023-03-27T19:29:50.311Z,100671.91
2023-03-27T19:32:16.928Z,100668.44
2023-03-27T19:34:43.701Z,100664.06
2023-03-27T19:37:10.862Z,100674.53
2023-03-27T19:39:37.984Z,100678.72
2023-03-27T19:42:04.735Z,100675.25
2023-03-27T19:44:31.712Z,100683.94
2023-03-27T19:46:58.609Z,100675.94
2023-03-27T19:49:25.520Z,100672.56
2023-03-27T19:51:52.778Z,100676.38
2023-03-27T19:54:19.553Z,100665.88
2023-03-27T19:56:46.419Z,100670.19
2023-03-27T19:59:20.731Z,100678.75
2023-03-27T20:01:51.082Z,100678.91
2023-03-27T20:04:17.786Z,100675.38
2023-03-27T20:06:46.935Z,100670.97
2023-03-27T20:09:16.392Z,100657.97
2023-03-27T20:11:43.806Z,100663.28
2023-03-27T20:14:11.364Z,100675.56
2023-03-27T20:16:38.758Z,100679.00
2023-03-27T20:19:05.478Z,100681.66
2023-03-27T20:21:37.718Z,100677.41
2023-03-27T20:24:05.824Z,100674.56
2023-03-27T20:26:39.055Z,100673.56
2023-03-27T20:29:10.833Z,100671.91
2023-03-27T20:31:38.353Z,100666.75
2023-03-27T20:34:05.862Z,100671.47
2023-03-27T20:36:35.139Z,100665.13
2023-03-27T20:39:07.062Z,100663.38
2023-03-27T20:41:38.857Z,100674.22
2023-03-27T20:44:16.356Z,100676.72
2023-03-27T20:46:51.751Z,100678.13
2023-03-27T20:49:39.834Z,100681.50
2023-03-27T20:52:08.513Z,100680.56
2023-03-27T20:54:35.238Z,100683.34
2023-03-27T20:57:02.727Z,100682.50
2023-03-27T20:59:30.778Z,100672.97
2023-03-27T21:01:58.098Z,100672.19
2023-03-27T21:04:26.153Z,100672.97
2023-03-27T21:06:56.113Z,100667.91
2023-03-27T21:09:24.332Z,100669.63
2023-03-27T21:11:51.326Z,100666.25
2023-03-27T21:14:18.024Z,100668.00
2023-03-27T21:16:44.956Z,100662.06
2023-03-27T21:19:11.898Z,100663.63
2023-03-27T21:21:38.965Z,100661.91
2023-03-27T21:24:06.176Z,100657.75
2023-03-27T21:26:33.398Z,100662.94
2023-03-27T21:29:00.339Z,100666.31
2023-03-27T21:31:27.296Z,100662.81
2023-03-27T21:33:54.196Z,100654.72
2023-03-27T21:36:21.178Z,100657.47
2023-03-27T21:38:49.933Z,100665.22
2023-03-27T21:41:17.544Z,100667.03
2023-03-27T21:43:44.397Z,100673.78
2023-03-27T21:46:11.235Z,100672.72
2023-03-27T21:48:40.466Z,100673.84
2023-03-27T21:51:08.630Z,100663.44
2023-03-27T21:53:35.789Z,100670.44
2023-03-27T21:56:02.842Z,100673.03
2023-03-27T21:58:29.590Z,100669.56
2023-03-27T22:00:57.659Z,100675.59
2023-03-27T22:03:25.615Z,100669.47
2023-03-27T22:06:08.085Z,100668.69
2023-03-27T22:08:38.036Z,100666.16
2023-03-27T22:11:04.886Z,100680.03
2023-03-27T22:13:31.729Z,100689.53
2023-03-27T22:15:58.656Z,100678.31
2023-03-27T22:18:25.604Z,100687.00
2023-03-27T22:20:52.273Z,100688.06
2023-03-27T22:23:18.921Z,100695.91
2023-03-27T22:25:56.245Z,100699.28
2023-03-27T22:28:23.148Z,100740.94
2023-03-27T22:30:52.986Z,100755.50
2023-03-27T22:33:20.266Z,100758.91
2023-03-27T22:35:50.518Z,100757.66
2023-03-27T22:38:17.559Z,100750.84
2023-03-27T22:40:44.257Z,100742.91
2023-03-27T22:43:22.796Z,100739.53
2023-03-27T22:45:50.472Z,100731.06
2023-03-27T22:48:17.551Z,100719.03
2023-03-27T22:50:46.257Z,100716.41
2023-03-27T22:53:12.830Z,100715.56
2023-03-27T22:55:39.616Z,100717.34
2023-03-27T22:58:06.245Z,100714.63
2023-03-27T23:00:32.856Z,100728.44
2023-03-27T23:02:59.858Z,100723.91
2023-03-27T23:05:26.636Z,100716.94
2023-03-27T23:07:53.288Z,100722.31
2023-03-27T23:10:19.971Z,100726.56
2023-03-27T23:12:46.734Z,100735.16
2023-03-27T23:15:13.347Z,100748.09
2023-03-27T23:17:40.069Z,100754.16
2023-03-27T23:20:07.078Z,100750.06
2023-03-27T23:22:33.706Z,100757.53
2023-03-27T23:25:00.322Z,100766.16
2023-03-27T23:27:27.070Z,100770.72
2023-03-27T23:29:53.662Z,100768.69
2023-03-27T23:32:20.890Z,100780.78
2023-03-27T23:34:47.675Z,100778.91
2023-03-27T23:37:14.386Z,100781.53
2023-03-27T23:39:43.948Z,100782.19
2023-03-27T23:42:10.830Z,100787.09
2023-03-27T23:44:39.952Z,100798.41
2023-03-27T23:47:10.134Z,100797.03
2023-03-27T23:49:36.847Z,100807.88
2023-03-27T23:52:03.603Z,100806.00
2023-03-27T23:54:30.412Z,100810.50
2023-03-27T23:56:57.810Z,100812.22
2023-03-27T23:59:24.447Z,100810.38
